League City, TX (77573)

9:55 PM CDT on July 26, 2016 (GMT -0500)
Nana's House | | Change Station

Elev 30 ft 29.49 °N, 95.10 °W | Updated 9 minutes ago

Mostly Cloudy
Mostly Cloudy
78.6 °F
Feels Like 82 °F
N
1.7
Wind Variable Wind from SE

Today
High -- | Low -- °F
--% Chance of Precip.
Yesterday
High -- | Low -- °F
Precip. -- in
Pressure 29.96 in
Visibility 10.0 miles
Clouds Scattered Clouds 10000 ft
Mostly Cloudy 25000 ft
Heat Index 82 °F
Dew Point 76 °F
Humidity 92%
Rainfall 0.49 in
Snow Depth Not available.
6:37 AM 8:16 PM
Waning Gibbous, 48% visible
METAR KEFD 270250Z 00000KT 10SM SCT100 BKN250 27/24 A2996
Pressure 29.96 in
Visibility 10.0 miles
Clouds Scattered Clouds 10000 ft
Mostly Cloudy 25000 ft
Heat Index 82 °F
Dew Point 76 °F
Humidity 92%
Rainfall 0.49 in
Snow Depth Not available.
6:37 AM 8:16 PM
Waning Gibbous, 48% visible
METAR KEFD 270250Z 00000KT 10SM SCT100 BKN250 27/24 A2996

10-Day Weather Forecast

Almanac

Astronomy

Jul. 26, 2016 Rise Set
Actual Time
Civil Twilight
Nautical Twilight
Astronomical Twilight
Moon
Length of Visible Light
Length of Day
Tomorrow will be .
, % of the Moon is Illuminated

Today's Extremes

State Highs State Lows

Community

WunderPhotos

Upload Photos

1,927,784 photos uploaded!

WunderBlog® & News

Nearby

Air Quality

  Air Quality AQ Index Pollutant
Not available.

Snow Depth

Station Depth Elevation

Earthquake Activity

City Distance Mag. Time & Date
Minimum magnitude displayed is 2.5.

Coastal Water Temperatures

Place Temperature

Stations

Nearby Weather Stations

Station Location Temp. Windchill Dew Point Humidity Wind Precip. Elev Updated Type
                   

Watches & Warnings

There are currently no watches in effect.